Langkawi, Malaysia
Current Conditions -  °F | °C
As of 7:00 PM on Monday 22 Dec 2014 (Local Time) from WMKL Reporting Station
Broken Clouds Broken Clouds  
Wind Chill: 81°   Ceiling: 27000
Heat Index: 85°   Visibility: 6mi
Dew Point: 73°   Wind: 9mph
Humidity: 79%   Direction: 40°NE
Pressure: 29.74"   Gusts: NA
Location:  6.37°N, 99.78°E
Report Text: WMKL 221100Z 04008KT 9999 FEW017CB SCT140 BKN270 27/23 Q1007
Loading
Personal Weather Stations






























Interactive Weather Map New forecast layout! Learn more

10-Day Weather Forecast

Advertisements
Track Severe Weather on mobile